Time;durP1;ratioP1;P1;durP2;ratioP2;P2;SDS_P1;SDS_P2;PMS_P1;PMS_P2;Temp;Humidity;BMP_temperature;BMP_pressure;BME280_temperature;BME280_humidity;BME280_pressure;Samples;Min_cycle;Max_cycle;Signal;HPM_P1;HPM_P2
2024/03/07 00:02:47;;;;;;;32.50;19.10;;;;;;;4.01;74.74;101105.67;131278;1253;107103;-79
2024/03/07 00:05:53;;;;;;;31.90;19.10;;;;;;;4.06;74.35;101104.47;131571;1253;107629;-79
2024/03/07 00:08:58;;;;;;;29.60;18.70;;;;;;;4.12;74.40;101105.36;131472;1248;107121;-79
2024/03/07 00:12:05;;;;;;;30.30;19.30;;;;;;;4.15;74.14;101105.36;131516;1248;108653;-79
2024/03/07 00:15:12;;;;;;;31.40;19.40;;;;;;;4.14;74.21;101104.90;131492;1248;107802;-79
2024/03/07 00:18:18;;;;;;;29.80;18.40;;;;;;;4.15;74.04;101105.02;131480;1248;107985;-79
2024/03/07 00:21:24;;;;;;;32.50;18.90;;;;;;;4.13;74.16;101100.19;131564;1271;108758;-79
2024/03/07 00:24:29;;;;;;;30.70;18.60;;;;;;;4.13;74.01;101101.45;131515;1248;108631;-79
2024/03/07 00:27:35;;;;;;;32.80;18.10;;;;;;;4.12;74.00;101099.54;131392;1248;107659;-79
2024/03/07 00:30:42;;;;;;;29.60;17.30;;;;;;;4.10;73.78;101099.83;131588;1252;106947;-78
2024/03/07 00:33:48;;;;;;;28.80;17.70;;;;;;;4.08;73.74;101096.59;131434;1269;107494;-79
2024/03/07 00:36:56;;;;;;;31.10;17.40;;;;;;;4.07;73.74;101096.00;131486;1253;108536;-79
2024/03/07 00:40:01;;;;;;;27.40;17.50;;;;;;;4.06;73.55;101096.73;131568;1253;107520;-79
2024/03/07 00:43:07;;;;;;;27.20;17.50;;;;;;;4.05;73.62;101094.88;131363;1251;106937;-80
2024/03/07 00:46:12;;;;;;;29.60;17.90;;;;;;;4.04;73.73;101092.61;131422;1253;107622;-80
2024/03/07 00:49:18;;;;;;;31.70;18.70;;;;;;;4.05;73.52;101094.30;131564;1253;108604;-79
2024/03/07 00:52:25;;;;;;;27.50;17.50;;;;;;;4.07;73.53;101093.13;131594;1248;106385;-80
2024/03/07 00:55:30;;;;;;;27.40;18.30;;;;;;;4.07;73.43;101093.50;131592;1248;108646;-79
2024/03/07 00:58:36;;;;;;;28.80;17.70;;;;;;;4.06;73.42;101094.60;131557;1248;108937;-80
2024/03/07 01:01:42;;;;;;;31.60;17.90;;;;;;;4.05;73.36;101096.42;131587;1266;108477;-79
2024/03/07 01:04:48;;;;;;;28.30;17.70;;;;;;;4.04;73.14;101095.81;131384;1253;107584;-80
2024/03/07 01:07:55;;;;;;;30.70;18.90;;;;;;;4.02;73.27;101098.38;131379;1249;107467;-79
2024/03/07 01:11:01;;;;;;;26.10;16.90;;;;;;;4.01;73.51;101096.34;131333;1249;109047;-79
2024/03/07 01:14:06;;;;;;;29.10;18.20;;;;;;;3.99;73.41;101095.55;131326;1251;106348;-80
2024/03/07 01:17:12;;;;;;;28.10;17.50;;;;;;;3.92;73.46;101095.58;131710;1253;106296;-80
2024/03/07 01:20:18;;;;;;;28.40;17.30;;;;;;;3.88;73.56;101092.86;131656;1248;107604;-80
2024/03/07 01:23:23;;;;;;;26.10;16.70;;;;;;;3.86;73.58;101094.17;131529;1252;108759;-80
2024/03/07 01:26:30;;;;;;;27.00;17.20;;;;;;;3.87;73.64;101093.77;131678;1248;108474;-80
2024/03/07 01:29:35;;;;;;;26.40;17.40;;;;;;;3.86;73.57;101094.02;131592;1248;106675;-79
2024/03/07 01:32:41;;;;;;;29.10;17.20;;;;;;;3.85;73.65;101091.42;131506;1253;107465;-80
2024/03/07 01:35:46;;;;;;;26.40;16.90;;;;;;;3.83;73.59;101094.92;131589;1248;108568;-79
2024/03/07 01:38:52;;;;;;;27.40;17.50;;;;;;;3.81;73.58;101097.12;131690;1253;108714;-80
2024/03/07 01:41:58;;;;;;;30.60;17.90;;;;;;;3.81;73.43;101097.64;131618;1263;107441;-79
2024/03/07 01:45:04;;;;;;;28.10;17.50;;;;;;;3.82;73.14;101098.45;131544;1248;108337;-80
2024/03/07 01:48:13;;;;;;;27.00;16.60;;;;;;;3.81;73.04;101097.16;131558;1253;108386;-79
2024/03/07 01:51:18;;;;;;;25.80;16.40;;;;;;;3.80;73.02;101097.70;131602;1252;108719;-80
2024/03/07 01:54:24;;;;;;;24.00;15.70;;;;;;;3.81;73.06;101096.79;131547;1248;107568;-79
2024/03/07 01:57:30;;;;;;;28.80;17.00;;;;;;;3.81;73.08;101099.08;131530;1252;108741;-79
2024/03/07 02:00:35;;;;;;;26.80;16.00;;;;;;;3.80;72.74;101098.79;131667;1252;106999;-80
2024/03/07 02:03:42;;;;;;;25.70;16.10;;;;;;;3.79;73.21;101099.17;131412;1251;107727;-80
2024/03/07 02:06:47;;;;;;;25.90;16.90;;;;;;;3.80;73.18;101099.84;131369;1253;106966;-80
2024/03/07 02:10:02;;;;;;;24.20;14.70;;;;;;;3.78;72.85;101102.09;131363;1251;108648;-80
2024/03/07 02:13:07;;;;;;;23.30;15.80;;;;;;;3.75;72.79;101101.72;131550;1253;106424;-80
2024/03/07 02:16:14;;;;;;;24.80;15.20;;;;;;;3.73;72.63;101103.19;131415;1253;108358;-79
2024/03/07 02:19:19;;;;;;;23.00;14.90;;;;;;;3.68;72.52;101100.67;131489;1248;106449;-80
2024/03/07 02:22:26;;;;;;;22.50;14.50;;;;;;;3.65;72.53;101104.22;131557;1253;108507;-79
2024/03/07 02:25:32;;;;;;;22.80;14.60;;;;;;;3.64;72.59;101105.13;131694;1253;107751;-80
2024/03/07 02:28:38;;;;;;;24.60;15.80;;;;;;;3.63;72.66;101105.76;131699;1253;107908;-79
2024/03/07 02:31:43;;;;;;;24.70;16.10;;;;;;;3.61;72.72;101105.15;131641;1248;108537;-79
2024/03/07 02:34:49;;;;;;;24.40;15.50;;;;;;;3.61;72.38;101103.19;131497;1248;107976;-79
2024/03/07 02:37:54;;;;;;;23.50;14.20;;;;;;;3.62;72.30;101106.16;131563;1253;106980;-80
2024/03/07 02:41:01;;;;;;;24.70;14.70;;;;;;;3.62;72.52;101105.43;131523;1253;109345;-79
2024/03/07 02:44:07;;;;;;;23.40;15.00;;;;;;;3.64;72.38;101107.44;131532;1253;106192;-79
2024/03/07 02:47:12;;;;;;;25.50;14.40;;;;;;;3.64;72.31;101106.40;131550;1253;108666;-80
2024/03/07 02:50:18;;;;;;;22.80;14.30;;;;;;;3.61;72.40;101104.58;131707;1252;108702;-79
2024/03/07 02:53:24;;;;;;;20.90;14.60;;;;;;;3.60;72.17;101107.30;131662;1248;108663;-79
2024/03/07 02:56:29;;;;;;;23.60;14.60;;;;;;;3.59;72.29;101107.02;131584;1253;107746;-80
2024/03/07 02:59:35;;;;;;;23.20;15.30;;;;;;;3.58;72.26;101104.98;131623;1251;107056;-79
2024/03/07 03:02:41;;;;;;;27.00;16.60;;;;;;;3.57;72.16;101103.27;131210;1253;107458;-79
2024/03/07 03:05:47;;;;;;;23.10;15.10;;;;;;;3.57;72.22;101103.45;131361;1253;107517;-79
2024/03/07 03:08:54;;;;;;;24.00;14.70;;;;;;;3.55;72.16;101101.80;131464;1253;106721;-79
2024/03/07 03:11:59;;;;;;;23.30;15.40;;;;;;;3.49;72.17;101106.69;131411;1253;108691;-79
2024/03/07 03:15:06;;;;;;;24.30;14.70;;;;;;;3.46;72.20;101106.65;131409;1251;106260;-79
2024/03/07 03:18:12;;;;;;;23.00;15.10;;;;;;;3.44;72.17;101107.14;131692;1248;108612;-79
2024/03/07 03:21:18;;;;;;;22.70;15.20;;;;;;;3.39;71.90;101113.08;131511;1253;107805;-79
2024/03/07 03:24:23;;;;;;;22.10;14.30;;;;;;;3.36;71.81;101113.77;131470;1252;107747;-79
2024/03/07 03:27:30;;;;;;;23.50;15.00;;;;;;;3.34;71.71;101107.50;131560;1253;106349;-80
2024/03/07 03:30:36;;;;;;;22.30;14.00;;;;;;;3.33;71.60;101109.33;131529;1253;108749;-79
2024/03/07 03:33:41;;;;;;;22.50;13.60;;;;;;;3.32;71.54;101110.30;131549;1248;107373;-80
2024/03/07 03:36:47;;;;;;;20.10;13.70;;;;;;;3.30;71.65;101108.64;132125;1248;108536;-79
2024/03/07 03:39:52;;;;;;;22.80;14.60;;;;;;;3.25;71.19;101113.83;133061;1247;108569;-81
2024/03/07 03:42:58;;;;;;;22.80;13.60;;;;;;;3.23;71.28;101114.83;131811;1252;106338;-81
2024/03/07 03:46:04;;;;;;;22.30;13.30;;;;;;;3.23;71.44;101110.59;131456;1248;106729;-80
2024/03/07 03:49:10;;;;;;;26.00;16.60;;;;;;;3.23;71.30;101117.48;131816;1253;108048;-80
2024/03/07 03:52:15;;;;;;;25.30;17.10;;;;;;;3.21;71.29;101115.30;131276;1253;105876;-77
2024/03/07 03:55:21;;;;;;;26.40;17.00;;;;;;;3.17;70.96;101111.29;131669;1253;106190;-77
2024/03/07 03:58:27;;;;;;;24.00;16.90;;;;;;;3.13;71.18;101117.63;131727;1263;107390;-78
2024/03/07 04:01:33;;;;;;;23.40;15.50;;;;;;;3.07;70.99;101116.04;131473;1253;106555;-77
2024/03/07 04:04:41;;;;;;;22.50;14.90;;;;;;;2.99;70.70;101116.98;131159;1263;108701;-78
2024/03/07 04:07:47;;;;;;;23.10;14.50;;;;;;;2.94;70.88;101119.74;131175;1251;107555;-78
2024/03/07 04:10:53;;;;;;;21.40;13.90;;;;;;;2.91;70.59;101119.02;131178;1251;107838;-78
2024/03/07 04:13:58;;;;;;;21.60;13.70;;;;;;;2.86;70.41;101118.38;131112;1255;107838;-78
2024/03/07 04:17:06;;;;;;;26.00;16.50;;;;;;;2.81;70.56;101117.62;131141;1248;108201;-77
2024/03/07 04:20:13;;;;;;;22.60;14.60;;;;;;;2.83;70.77;101121.03;131312;1252;106962;-78
2024/03/07 04:23:20;;;;;;;24.20;16.50;;;;;;;2.83;70.52;101120.14;131305;1253;107783;-78
2024/03/07 04:26:26;;;;;;;28.40;17.90;;;;;;;2.82;70.75;101123.19;131270;1253;107129;-79
2024/03/07 04:29:32;;;;;;;28.50;18.90;;;;;;;2.84;70.68;101122.23;131307;1254;107771;-79
2024/03/07 04:32:38;;;;;;;33.50;20.50;;;;;;;2.85;70.63;101124.80;131517;1253;107392;-78
2024/03/07 04:35:44;;;;;;;28.70;17.70;;;;;;;2.83;70.20;101127.88;131374;1249;106281;-79
2024/03/07 04:38:51;;;;;;;25.40;15.10;;;;;;;2.82;70.35;101124.63;131271;1253;108682;-79
2024/03/07 04:41:56;;;;;;;20.10;12.40;;;;;;;2.82;70.24;101130.06;131282;1271;106514;-78
2024/03/07 04:45:02;;;;;;;19.00;12.60;;;;;;;2.80;70.09;101128.42;131295;1248;108290;-79
2024/03/07 04:48:09;;;;;;;20.70;13.40;;;;;;;2.78;70.12;101132.88;131280;1251;108730;-77
2024/03/07 04:51:15;;;;;;;20.20;12.60;;;;;;;2.77;70.33;101131.01;131434;1253;107595;-78
2024/03/07 04:54:21;;;;;;;19.20;12.20;;;;;;;2.77;70.13;101134.35;131286;1253;108563;-77
2024/03/07 04:57:27;;;;;;;20.10;13.10;;;;;;;2.76;70.11;101135.98;131282;1248;108684;-79
2024/03/07 05:00:33;;;;;;;20.30;13.10;;;;;;;2.77;70.12;101136.44;131299;1254;108651;-79
2024/03/07 05:03:38;;;;;;;20.10;13.20;;;;;;;2.75;69.94;101140.80;131253;1248;107751;-79
2024/03/07 05:06:47;;;;;;;20.40;12.20;;;;;;;2.72;69.79;101143.20;131262;1248;106502;-77
2024/03/07 05:09:53;;;;;;;20.70;13.10;;;;;;;2.71;69.81;101141.16;131296;1254;107231;-78
2024/03/07 05:12:59;;;;;;;41.00;22.30;;;;;;;2.72;69.97;101143.20;131398;1248;106549;-78
2024/03/07 05:16:06;;;;;;;39.00;19.40;;;;;;;2.71;70.10;101138.89;131484;1254;107649;-78
2024/03/07 05:19:12;;;;;;;33.40;16.80;;;;;;;2.70;69.93;101142.98;131377;1261;106361;-77
2024/03/07 05:22:20;;;;;;;31.10;17.20;;;;;;;2.67;69.96;101147.52;131269;1253;108656;-77
2024/03/07 05:25:26;;;;;;;31.20;16.70;;;;;;;2.62;70.03;101143.22;131460;1248;108719;-78
2024/03/07 05:28:31;;;;;;;28.30;16.10;;;;;;;2.57;69.96;101148.21;131278;1248;107656;-77
2024/03/07 05:31:45;;;;;;;32.20;18.00;;;;;;;2.52;70.01;101157.95;131256;1248;107583;-77
2024/03/07 05:34:51;;;;;;;26.90;16.30;;;;;;;2.47;69.90;101159.30;131322;1253;107631;-75
2024/03/07 05:37:57;;;;;;;27.00;15.10;;;;;;;2.41;69.82;101164.47;131339;1253;106993;-77
2024/03/07 05:41:04;;;;;;;24.90;15.40;;;;;;;2.36;69.78;101168.45;131317;1253;107083;-77
2024/03/07 05:44:09;;;;;;;25.90;15.10;;;;;;;2.28;69.68;101169.00;131364;1254;106197;-77
2024/03/07 05:47:16;;;;;;;24.80;16.20;;;;;;;2.24;69.77;101171.13;131297;1253;108611;-78
2024/03/07 05:50:21;;;;;;;22.30;14.10;;;;;;;2.21;69.78;101170.73;131271;1253;106872;-79
2024/03/07 05:53:27;;;;;;;23.50;14.10;;;;;;;2.19;69.75;101172.48;131308;1254;106303;-79
2024/03/07 05:56:33;;;;;;;29.40;17.90;;;;;;;2.08;70.36;101173.85;131418;1248;107880;-78
2024/03/07 05:59:38;;;;;;;29.60;17.30;;;;;;;1.94;70.72;101178.44;131488;1252;107943;-79
2024/03/07 06:02:44;;;;;;;28.40;16.70;;;;;;;1.82;71.24;101178.15;131313;1254;107740;-81
2024/03/07 06:05:50;;;;;;;29.70;17.80;;;;;;;1.70;71.57;101177.80;131658;1253;107915;-78
2024/03/07 06:08:56;;;;;;;31.00;19.00;;;;;;;1.65;71.72;101179.46;131435;1247;107940;-78
2024/03/07 06:12:02;;;;;;;33.10;20.00;;;;;;;1.57;71.89;101180.19;131371;1248;106301;-79
2024/03/07 06:15:09;;;;;;;35.00;19.50;;;;;;;1.48;72.44;101184.98;135134;1248;107437;-78
2024/03/07 06:18:15;;;;;;;32.10;17.70;;;;;;;1.45;72.34;101186.70;131535;1253;105495;-78
2024/03/07 06:21:21;;;;;;;29.10;16.10;;;;;;;1.51;72.47;101188.73;131430;1253;109258;-81
2024/03/07 06:24:30;;;;;;;33.50;18.70;;;;;;;1.59;72.61;101187.46;131465;1248;106243;-81
2024/03/07 06:27:38;;;;;;;31.10;18.40;;;;;;;1.69;72.48;101188.55;131357;1253;108503;-80
2024/03/07 06:30:46;;;;;;;35.40;18.70;;;;;;;1.78;72.15;101190.76;131257;1248;107487;-80
2024/03/07 06:33:52;;;;;;;37.60;19.80;;;;;;;1.85;71.95;101195.33;131270;1248;107113;-81
2024/03/07 06:36:57;;;;;;;33.60;18.90;;;;;;;1.92;72.05;101198.13;131212;1261;109216;-81
2024/03/07 06:40:06;;;;;;;32.00;19.00;;;;;;;2.04;72.03;101201.80;131180;1254;107656;-80
2024/03/07 06:43:11;;;;;;;29.50;18.30;;;;;;;2.13;71.69;101203.80;131222;1262;107701;-80
2024/03/07 06:46:19;;;;;;;30.80;17.50;;;;;;;2.19;71.54;101200.34;131194;1254;107657;-80
2024/03/07 06:49:25;;;;;;;30.20;16.30;;;;;;;2.24;71.35;101201.88;131161;1254;108796;-80
2024/03/07 06:52:30;;;;;;;28.20;15.80;;;;;;;2.28;71.06;101203.42;131376;1254;108344;-79
2024/03/07 06:55:36;;;;;;;28.60;15.90;;;;;;;2.30;71.02;101206.32;131310;1249;108571;-81
2024/03/07 06:58:42;;;;;;;26.90;16.00;;;;;;;2.33;70.93;101203.14;131349;1248;107508;-81
2024/03/07 07:01:48;;;;;;;25.90;15.30;;;;;;;2.34;70.77;101201.88;131316;1249;107560;-80
2024/03/07 07:04:53;;;;;;;24.80;15.10;;;;;;;2.35;70.65;101203.08;131354;1257;108649;-80
2024/03/07 07:07:59;;;;;;;25.70;16.40;;;;;;;2.38;70.73;101208.71;131239;1254;108462;-79
2024/03/07 07:11:05;;;;;;;27.50;16.50;;;;;;;2.42;70.88;101211.86;131316;1248;108072;-81
2024/03/07 07:14:11;;;;;;;25.80;15.70;;;;;;;2.48;70.77;101214.05;131223;1253;108454;-81
2024/03/07 07:17:17;;;;;;;24.80;16.40;;;;;;;2.51;70.41;101214.92;131206;1254;108702;-80
2024/03/07 07:20:23;;;;;;;26.10;15.20;;;;;;;2.51;70.43;101211.74;131357;1253;108307;-80
2024/03/07 07:23:29;;;;;;;24.70;14.80;;;;;;;2.51;70.41;101211.74;131222;1258;108612;-79
2024/03/07 07:26:35;;;;;;;22.90;15.10;;;;;;;2.52;70.36;101209.25;131184;1248;108692;-80
2024/03/07 07:29:41;;;;;;;23.50;15.00;;;;;;;2.52;70.04;101206.95;131247;1254;108459;-80
2024/03/07 07:32:47;;;;;;;27.50;15.70;;;;;;;2.55;70.14;101206.64;131297;1253;107676;-80
2024/03/07 07:35:53;;;;;;;23.30;14.00;;;;;;;2.61;69.94;101205.98;131502;1248;107045;-80
2024/03/07 07:38:59;;;;;;;22.40;14.30;;;;;;;2.66;69.77;101208.70;131329;1257;106719;-80
2024/03/07 07:42:05;;;;;;;23.20;14.90;;;;;;;2.72;69.97;101207.88;131317;1271;106359;-80
2024/03/07 07:45:12;;;;;;;23.20;14.00;;;;;;;2.78;69.36;101211.63;131444;1254;107555;-80
2024/03/07 07:48:19;;;;;;;22.60;14.80;;;;;;;2.84;69.69;101213.42;131362;1253;108117;-80
2024/03/07 07:51:25;;;;;;;26.90;13.90;;;;;;;2.90;69.42;101211.34;131322;1252;107402;-80
2024/03/07 07:54:30;;;;;;;24.60;14.70;;;;;;;2.96;69.56;101208.56;131199;1254;107771;-80
2024/03/07 07:57:36;;;;;;;21.70;14.10;;;;;;;3.11;69.62;101206.55;131237;1253;108601;-81
2024/03/07 08:00:43;;;;;;;21.30;14.20;;;;;;;3.27;69.37;101206.77;131346;1254;108771;-79
2024/03/07 08:03:49;;;;;;;25.30;15.00;;;;;;;3.35;69.16;101207.00;131394;1260;107651;-79
2024/03/07 08:06:54;;;;;;;25.80;15.10;;;;;;;3.43;69.24;101201.48;131407;1254;105351;-79
2024/03/07 08:10:00;;;;;;;29.40;16.60;;;;;;;3.44;69.27;101205.13;131230;1254;106388;-79
2024/03/07 08:13:06;;;;;;;29.00;17.60;;;;;;;3.34;69.13;101203.90;131292;1254;107568;-80
2024/03/07 08:16:13;;;;;;;28.20;18.00;;;;;;;3.28;69.03;101200.17;131232;1253;106264;-80
2024/03/07 08:19:19;;;;;;;29.40;17.60;;;;;;;3.30;69.33;101203.40;131220;1254;108835;-80
2024/03/07 08:22:25;;;;;;;29.40;18.20;;;;;;;3.39;69.74;101193.76;131196;1253;106627;-80
2024/03/07 08:25:31;;;;;;;26.20;16.90;;;;;;;3.54;69.41;101193.13;131263;1261;106481;-80
2024/03/07 08:28:37;;;;;;;24.50;16.40;;;;;;;3.71;69.00;101195.39;131199;1248;107639;-80
2024/03/07 08:31:44;;;;;;;25.00;16.10;;;;;;;3.78;68.73;101190.77;131204;1258;107654;-80
2024/03/07 08:34:49;;;;;;;26.70;16.40;;;;;;;3.82;68.44;101188.77;131289;1261;107708;-80
2024/03/07 08:37:57;;;;;;;23.40;15.40;;;;;;;3.84;68.56;101193.40;131349;1248;107736;-80
2024/03/07 08:41:03;;;;;;;26.50;17.00;;;;;;;3.87;68.81;101186.52;131159;1254;107440;-80
2024/03/07 08:44:09;;;;;;;27.50;17.60;;;;;;;3.83;68.03;101190.45;131165;1255;106462;-80
2024/03/07 08:47:14;;;;;;;25.80;16.80;;;;;;;3.73;68.34;101192.77;131223;1254;106897;-80
2024/03/07 08:50:20;;;;;;;25.50;16.20;;;;;;;3.65;68.59;101196.03;131229;1253;107581;-80
2024/03/07 08:53:26;;;;;;;24.70;16.20;;;;;;;3.65;68.58;101192.50;131233;1266;108715;-81
2024/03/07 08:56:31;;;;;;;25.40;17.00;;;;;;;3.66;68.42;101184.01;131175;1254;107577;-80
2024/03/07 08:59:37;;;;;;;26.40;16.40;;;;;;;3.73;68.16;101182.94;131406;1252;106427;-80
2024/03/07 09:02:43;;;;;;;31.00;17.30;;;;;;;3.78;68.11;101181.80;131375;1254;107673;-80
2024/03/07 09:05:50;;;;;;;27.70;17.80;;;;;;;3.89;67.64;101180.63;131323;1253;108601;-80
2024/03/07 09:08:56;;;;;;;25.00;15.60;;;;;;;3.89;67.90;101180.05;131229;1248;108581;-80
2024/03/07 09:12:02;;;;;;;24.70;15.50;;;;;;;3.90;67.26;101176.33;131199;1254;106769;-80
2024/03/07 09:15:10;;;;;;;25.60;16.30;;;;;;;3.95;67.79;101176.08;131284;1252;106808;-80
2024/03/07 09:18:16;;;;;;;25.00;14.70;;;;;;;4.07;67.85;101180.48;131071;1251;108663;-80
2024/03/07 09:21:21;;;;;;;23.90;15.40;;;;;;;4.18;67.54;101179.33;131005;1264;108290;-80
2024/03/07 09:24:28;;;;;;;24.30;16.60;;;;;;;4.19;67.39;101178.36;131196;1256;108333;-81
2024/03/07 09:27:33;;;;;;;27.90;16.40;;;;;;;4.17;67.61;101176.77;130981;1266;108405;-80
2024/03/07 09:30:40;;;;;;;25.70;15.90;;;;;;;4.19;67.57;101175.54;130926;1254;118845;-80
2024/03/07 09:33:45;;;;;;;26.30;17.90;;;;;;;4.23;67.66;101180.08;130992;1254;107639;-80
2024/03/07 09:36:51;;;;;;;25.60;16.00;;;;;;;4.26;67.21;101180.25;130991;1253;107590;-80
2024/03/07 09:39:57;;;;;;;24.90;16.90;;;;;;;4.28;66.95;101182.79;130988;1255;107706;-80
2024/03/07 09:43:03;;;;;;;23.90;16.10;;;;;;;4.30;67.37;101177.02;130976;1254;107824;-80
2024/03/07 09:46:10;;;;;;;26.40;16.50;;;;;;;4.33;66.17;101183.90;131017;1254;107857;-80
2024/03/07 09:49:16;;;;;;;23.90;15.70;;;;;;;4.29;66.57;101180.62;131208;1261;107393;-80
2024/03/07 09:52:22;;;;;;;22.90;15.70;;;;;;;4.25;65.96;101177.49;131309;1253;107693;-79
2024/03/07 09:55:28;;;;;;;22.30;14.10;;;;;;;4.24;65.93;101180.52;131235;1254;106903;-80
2024/03/07 09:58:36;;;;;;;21.30;13.20;;;;;;;4.25;66.00;101178.70;131324;1251;106301;-79
2024/03/07 10:01:46;;;;;;;20.80;13.20;;;;;;;4.30;65.73;101180.36;131280;1254;106509;-79
2024/03/07 10:04:56;;;;;;;20.90;13.20;;;;;;;4.36;65.96;101177.60;131201;1261;106911;-79
2024/03/07 10:08:02;;;;;;;19.40;13.10;;;;;;;4.43;65.55;101183.14;131377;1255;108469;-79
2024/03/07 10:11:08;;;;;;;18.00;12.10;;;;;;;4.51;65.40;101183.34;131389;1260;108500;-80
2024/03/07 10:14:14;;;;;;;18.00;12.10;;;;;;;4.56;64.95;101177.61;131173;1260;106826;-80
2024/03/07 10:17:20;;;;;;;17.20;12.00;;;;;;;4.64;65.29;101176.95;131289;1260;108475;-80
2024/03/07 10:20:26;;;;;;;18.70;10.50;;;;;;;4.77;64.88;101176.70;131256;1253;106847;-80
2024/03/07 10:23:33;;;;;;;16.70;10.90;;;;;;;4.85;64.50;101169.86;131223;1254;107657;-79
2024/03/07 10:26:40;;;;;;;14.10;10.10;;;;;;;4.86;63.52;101167.51;131417;1253;107768;-81
2024/03/07 10:29:46;;;;;;;14.90;9.50;;;;;;;4.90;63.98;101168.17;131266;1253;108335;-79
2024/03/07 10:32:55;;;;;;;14.50;10.10;;;;;;;4.96;64.22;101163.89;131308;1261;107597;-79
2024/03/07 10:36:02;;;;;;;15.10;9.90;;;;;;;5.04;64.02;101163.78;131170;1251;106861;-79
2024/03/07 10:39:14;;;;;;;13.20;8.60;;;;;;;5.10;63.34;101166.73;131174;1253;106275;-79
2024/03/07 10:42:24;;;;;;;15.00;9.60;;;;;;;5.12;63.08;101164.66;131182;1261;107255;-79
2024/03/07 10:45:34;;;;;;;13.10;8.50;;;;;;;5.16;62.32;101168.84;131182;1272;106421;-79
2024/03/07 10:48:45;;;;;;;12.30;8.30;;;;;;;5.15;62.26;101167.00;131214;1251;107492;-79
2024/03/07 10:52:00;;;;;;;12.60;9.00;;;;;;;5.16;61.77;101172.77;131216;1254;106209;-79
2024/03/07 10:55:17;;;;;;;14.20;9.20;;;;;;;5.17;62.10;101170.54;131175;1253;107657;-80
2024/03/07 10:58:34;;;;;;;15.20;9.30;;;;;;;5.21;62.16;101167.67;131391;1251;106267;-80
2024/03/07 11:01:49;;;;;;;14.50;9.20;;;;;;;5.23;61.87;101165.62;131424;1249;108538;-80
2024/03/07 11:04:55;;;;;;;13.80;9.10;;;;;;;5.27;61.97;101166.61;131431;1253;108217;-79
2024/03/07 11:08:06;;;;;;;13.90;9.00;;;;;;;5.31;61.87;101166.86;131398;1272;106378;-80
2024/03/07 11:11:13;;;;;;;14.00;9.10;;;;;;;5.33;61.98;101164.63;131302;1260;106486;-80
2024/03/07 11:14:20;;;;;;;15.90;9.60;;;;;;;5.38;62.16;101166.60;131222;1250;108456;-80
2024/03/07 11:17:26;;;;;;;15.00;9.20;;;;;;;5.44;61.81;101164.77;131270;1253;109535;-80
2024/03/07 11:20:38;;;;;;;16.20;10.10;;;;;;;5.47;61.98;101161.04;131307;1252;108752;-79
2024/03/07 11:23:47;;;;;;;14.20;9.50;;;;;;;5.51;61.90;101155.52;131470;1254;106556;-79
2024/03/07 11:26:53;;;;;;;13.90;9.10;;;;;;;5.53;61.56;101152.43;131398;1254;106736;-79
2024/03/07 11:30:08;;;;;;;16.30;8.80;;;;;;;5.56;61.13;101149.03;131408;1252;106311;-79
2024/03/07 11:33:14;;;;;;;13.60;9.00;;;;;;;5.58;60.60;101152.11;131406;1251;106634;-79
2024/03/07 11:36:46;;;;;;;13.20;8.90;;;;;;;5.57;60.52;101149.00;131365;1261;107245;-79
2024/03/07 11:39:55;;;;;;;14.50;9.00;;;;;;;5.59;61.02;101147.80;131386;1251;108614;-78
2024/03/07 11:43:04;;;;;;;13.90;8.90;;;;;;;5.63;60.95;101143.63;131567;1253;107880;-78
2024/03/07 11:46:11;;;;;;;17.70;9.30;;;;;;;5.67;60.60;101140.04;131280;1251;108288;-77
2024/03/07 11:49:17;;;;;;;13.00;9.50;;;;;;;5.70;60.94;101138.20;134937;1250;105943;-79
2024/03/07 11:52:23;;;;;;;13.10;9.10;;;;;;;5.75;60.35;101138.27;134743;1249;106714;-78
2024/03/07 11:55:29;;;;;;;11.70;8.50;;;;;;;5.77;60.23;101136.36;131305;1252;108391;-79
2024/03/07 11:58:34;;;;;;;13.60;9.00;;;;;;;5.80;60.39;101132.67;131251;1262;108408;-78
2024/03/07 12:01:42;;;;;;;12.00;8.60;;;;;;;5.86;60.83;101127.65;131395;1272;108470;-78
2024/03/07 12:04:49;;;;;;;12.50;7.80;;;;;;;5.94;60.48;101127.70;131591;1253;108449;-78
2024/03/07 12:07:57;;;;;;;12.70;8.90;;;;;;;5.96;60.17;101123.33;131565;1254;108384;-78
2024/03/07 12:11:03;;;;;;;14.20;9.10;;;;;;;5.99;59.97;101129.47;131273;1261;108684;-78
2024/03/07 12:14:10;;;;;;;14.20;8.70;;;;;;;6.00;59.76;101121.32;131159;1250;107656;-78
2024/03/07 12:17:17;;;;;;;14.80;9.40;;;;;;;5.99;59.90;101119.10;131131;1251;106545;-78
2024/03/07 12:20:27;;;;;;;12.50;8.30;;;;;;;6.02;59.68;101119.77;131221;1254;106851;-78
2024/03/07 12:23:33;;;;;;;12.60;8.30;;;;;;;6.03;59.65;101117.75;131344;1254;107467;-77
2024/03/07 12:26:39;;;;;;;13.70;8.80;;;;;;;6.05;60.01;101115.70;131270;1251;106312;-77
2024/03/07 12:29:48;;;;;;;13.50;8.70;;;;;;;6.10;60.38;101113.38;131266;1253;106535;-78
2024/03/07 12:32:54;;;;;;;13.50;8.40;;;;;;;6.14;59.01;101114.02;131179;1254;108703;-77
2024/03/07 12:36:06;;;;;;;12.30;8.30;;;;;;;6.13;58.65;101110.75;131157;1254;106489;-77
2024/03/07 12:39:24;;;;;;;11.90;8.20;;;;;;;6.09;58.36;101108.30;131197;1251;106883;-77
2024/03/07 12:42:31;;;;;;;11.90;8.00;;;;;;;6.12;58.65;101104.93;131373;1254;107480;-78
2024/03/07 12:45:37;;;;;;;12.40;7.70;;;;;;;6.16;58.70;101106.66;131245;1253;107654;-78
2024/03/07 12:48:44;;;;;;;18.10;13.20;;;;;;;6.17;58.62;101100.04;131255;1251;107181;-78
2024/03/07 12:51:50;;;;;;;13.80;8.70;;;;;;;6.19;58.54;101098.33;131130;1254;106526;-78
2024/03/07 12:54:56;;;;;;;11.60;7.80;;;;;;;6.20;58.78;101100.02;131193;1253;107667;-77
2024/03/07 12:58:01;;;;;;;12.10;8.20;;;;;;;6.23;58.08;101095.56;131315;1254;107300;-77
2024/03/07 13:01:07;;;;;;;12.60;8.00;;;;;;;6.27;58.19;101094.92;131223;1251;107716;-77
2024/03/07 13:04:13;;;;;;;11.10;6.80;;;;;;;6.28;57.58;101096.80;131076;1254;108692;-77
2024/03/07 13:07:19;;;;;;;11.60;7.80;;;;;;;6.26;57.46;101093.02;130991;1254;108595;-77
2024/03/07 13:10:25;;;;;;;11.90;7.20;;;;;;;6.26;57.65;101089.67;131060;1251;108700;-78
2024/03/07 13:13:31;;;;;;;12.50;7.80;;;;;;;6.27;57.49;101091.36;131143;1254;106522;-77
2024/03/07 13:16:37;;;;;;;11.00;7.20;;;;;;;6.30;58.01;101087.16;131315;1256;108633;-77
2024/03/07 13:19:48;;;;;;;10.60;7.20;;;;;;;6.33;57.78;101085.71;131202;1253;107405;-77
2024/03/07 13:22:56;;;;;;;12.30;7.30;;;;;;;6.36;57.48;101087.95;131145;1254;106415;-77
2024/03/07 13:26:08;;;;;;;14.90;9.70;;;;;;;6.38;57.15;101087.13;131435;1270;108409;-78
2024/03/07 13:29:13;;;;;;;10.50;6.80;;;;;;;6.40;57.23;101079.75;131394;1260;107695;-78
2024/03/07 13:32:19;;;;;;;12.10;7.30;;;;;;;6.42;57.45;101081.05;131346;1251;107465;-78
2024/03/07 13:35:27;;;;;;;12.30;7.60;;;;;;;6.45;57.35;101081.19;131257;1254;107444;-78
2024/03/07 13:38:33;;;;;;;10.70;7.10;;;;;;;6.45;56.98;101081.48;131459;1249;108619;-77
2024/03/07 13:41:39;;;;;;;13.80;8.20;;;;;;;6.44;56.57;101082.62;131342;1254;107412;-78
2024/03/07 13:44:45;;;;;;;14.40;8.80;;;;;;;6.43;57.08;101078.45;131471;1251;106580;-78
2024/03/07 13:47:52;;;;;;;8.70;6.30;;;;;;;6.44;56.64;101083.15;131367;1251;107560;-77
2024/03/07 13:50:59;;;;;;;8.60;6.30;;;;;;;6.44;56.24;101078.75;131442;1254;106572;-76
2024/03/07 13:54:26;;;;;;;11.80;7.20;;;;;;;6.45;56.11;101072.66;131416;1250;106879;-77
2024/03/07 13:57:43;;;;;;;14.40;8.40;;;;;;;6.45;56.24;101070.41;131412;1253;107279;-77
2024/03/07 14:00:55;;;;;;;10.60;6.20;;;;;;;6.45;55.34;101075.84;131443;1254;108628;-78
2024/03/07 14:04:52;;;;;;;10.60;6.40;;;;;;;6.45;55.08;101073.71;131391;1254;108506;-77